Aérodrome :
LOGIN :

S'inscrire | Disclaimer

   EN    FR    IT 

 










Légende :    VFR   VFR Marginal   IFR   IFR Intensif   IFR Très Intensif
Visi : 
Plafond : 
>= 8 km
>= 3000ft
5 à 8 km
1000 à 3000 ft
1500m à 5 km
500 à 1000 ft
800 à 1500m
200 à 500 ft
< 800m
< 200 ft
Symboles :   Orages  Brouillard  Fortes neiges  Fortes précipitations  Vent > 20 kt
SIGMETs :   Divers  Orages  Givrage  Turbulence  Onde Orograph.  Cendres Volcan.






- Altitude de l'aérodrome : 686 ft


LYKV - Ladevci

DERNIER METAR :
  • 200200Z VRB02KT 9999 SCT040 12/09 Q1016 NOSIG

METARs EXPIRÉS :
  • 200130Z VRB02KT 9999 SCT040 11/09 Q1016 NOSIG
  • 200100Z 12003KT 080V160 CAVOK 12/09 Q1017 NOSIG
  • 200030Z 13003KT 100V180 CAVOK 12/09 Q1017 NOSIG
  • 200000Z VRB02KT CAVOK 12/09 Q1017 NOSIG
  • 192330Z VRB02KT CAVOK 12/10 Q1018 NOSIG

TAF TAF LYKV
Valide du 20 à 00h jusqu'au 21 à 00h UTC


192300Z 2000/2024 14009KT SCT040 TX15/2013Z TN06/2024Z
TEMPO 2003/2010 5000 RA
TEMPO 2010/2014 5000 SHRA SCT027TCU SCT030



MET'MAP, la Météo Aéronautique d'un coup d'oeil ! - Copyright ORBIFLY Décembre 2007 - Disclaimer

ORBIFLY MET'MAP TEAM :

Programmation & Développement : Alexandra Zaïnal
Conception & Développement : Baudouin d'Aumeries
Co-Programmation & Développement : Marc-Olivier Méhu
Soutien technique & logistique : Manuel Goepfert

Contact : metmap@orbifly.com




SOURCES & CREDITS :

   NOAA